createdAt,value
2018-12-17T00:00:52.659Z,4.00
2018-12-17T00:03:25.003Z,4.00
2018-12-17T00:05:57.240Z,4.10
2018-12-17T00:08:31.963Z,4.10
2018-12-17T00:11:03.420Z,4.00
2018-12-17T00:13:35.240Z,4.00
2018-12-17T00:16:06.800Z,4.00
2018-12-17T00:18:38.500Z,4.00
2018-12-17T00:21:10.740Z,4.00
2018-12-17T00:23:42.420Z,4.10
2018-12-17T00:26:14.120Z,4.10
2018-12-17T00:28:46.603Z,4.20
2018-12-17T00:31:18.385Z,4.20
2018-12-17T00:33:50.700Z,4.10
2018-12-17T00:36:22.568Z,4.00
2018-12-17T00:38:54.400Z,4.00
2018-12-17T00:41:25.761Z,3.90
2018-12-17T00:43:57.961Z,3.90
2018-12-17T00:46:29.701Z,4.00
2018-12-17T00:49:02.240Z,4.00
2018-12-17T00:51:35.022Z,3.90
2018-12-17T00:54:06.601Z,3.90
2018-12-17T00:56:39.101Z,3.90
2018-12-17T00:59:10.681Z,4.00
2018-12-17T01:01:42.774Z,4.00
2018-12-17T01:04:14.401Z,4.00
2018-12-17T01:06:46.701Z,3.90
2018-12-17T01:09:18.580Z,4.00
2018-12-17T01:11:50.742Z,4.00
2018-12-17T01:14:23.241Z,4.00
2018-12-17T01:16:55.143Z,4.00
2018-12-17T01:19:27.981Z,4.00
2018-12-17T01:22:00.201Z,4.00
2018-12-17T01:24:31.840Z,4.00
2018-12-17T01:27:04.123Z,4.00
2018-12-17T01:29:36.060Z,3.90
2018-12-17T01:32:08.741Z,4.00
2018-12-17T01:34:40.301Z,4.00
2018-12-17T01:37:12.181Z,4.10
2018-12-17T01:39:43.661Z,4.10
2018-12-17T01:42:15.419Z,4.00
2018-12-17T01:44:47.400Z,4.00
2018-12-17T01:47:19.381Z,4.00
2018-12-17T01:49:51.100Z,4.00
2018-12-17T01:52:22.260Z,4.00
2018-12-17T01:54:53.960Z,4.10
2018-12-17T01:57:26.883Z,4.10
2018-12-17T01:59:58.920Z,4.10
2018-12-17T02:02:31.399Z,4.10
2018-12-17T02:05:03.503Z,4.20
2018-12-17T02:07:35.305Z,4.20
2018-12-17T02:10:07.381Z,4.10
2018-12-17T02:12:39.060Z,4.10
2018-12-17T02:15:11.307Z,4.00
2018-12-17T02:17:44.061Z,4.00
2018-12-17T02:20:16.101Z,4.10
2018-12-17T02:22:49.061Z,4.10
2018-12-17T02:25:20.242Z,4.10
2018-12-17T02:27:52.841Z,4.10
2018-12-17T02:30:24.781Z,4.10
2018-12-17T02:32:56.940Z,4.10
2018-12-17T02:35:28.600Z,4.20
2018-12-17T02:38:01.244Z,4.20
2018-12-17T02:40:32.660Z,4.10
2018-12-17T02:43:04.660Z,4.00
2018-12-17T02:45:36.940Z,3.90
2018-12-17T02:48:08.700Z,4.00
2018-12-17T02:50:41.060Z,4.00
2018-12-17T02:53:13.523Z,4.00
2018-12-17T02:55:45.100Z,4.00
2018-12-17T02:58:17.740Z,4.10
2018-12-17T03:00:49.247Z,4.10
2018-12-17T03:03:21.739Z,4.10
2018-12-17T03:05:53.322Z,4.10
2018-12-17T03:08:25.780Z,4.10
2018-12-17T03:10:57.480Z,4.10
2018-12-17T03:13:32.160Z,4.10
2018-12-17T03:16:03.880Z,4.10
2018-12-17T03:18:36.360Z,4.10
2018-12-17T03:21:08.780Z,4.10
2018-12-17T03:23:40.500Z,4.10
2018-12-17T03:26:13.301Z,4.00
2018-12-17T03:28:51.612Z,4.00
2018-12-17T03:31:20.262Z,4.00
2018-12-17T03:33:51.980Z,4.00
2018-12-17T03:36:23.800Z,4.00
2018-12-17T03:38:55.341Z,4.00
2018-12-17T03:41:27.881Z,3.90
2018-12-17T03:43:59.569Z,3.90
2018-12-17T03:46:32.240Z,3.90
2018-12-17T03:49:03.661Z,3.90
2018-12-17T03:51:35.967Z,3.90
2018-12-17T03:54:08.200Z,3.90
2018-12-17T03:56:40.620Z,3.90
2018-12-17T03:59:12.840Z,3.90
2018-12-17T04:01:44.640Z,4.00
2018-12-17T04:04:16.282Z,3.90
2018-12-17T04:06:48.640Z,4.00
2018-12-17T04:09:21.366Z,4.00
2018-12-17T04:11:53.261Z,4.00
2018-12-17T04:14:25.082Z,4.00
2018-12-17T04:16:57.040Z,4.10
2018-12-17T04:19:29.021Z,4.00
2018-12-17T04:22:00.920Z,4.10
2018-12-17T04:24:33.381Z,4.20
2018-12-17T04:27:04.743Z,4.20
2018-12-17T04:29:36.221Z,4.20
2018-12-17T04:32:07.342Z,4.20
2018-12-17T04:34:39.124Z,4.20
2018-12-17T04:37:11.395Z,4.20
2018-12-17T04:39:43.880Z,4.20
2018-12-17T04:42:15.401Z,4.20
2018-12-17T04:44:49.160Z,4.30
2018-12-17T04:47:21.163Z,4.30
2018-12-17T04:49:52.940Z,4.40
2018-12-17T04:52:24.421Z,4.40
2018-12-17T04:54:54.540Z,4.40
2018-12-17T04:57:26.319Z,4.40
2018-12-17T04:59:57.800Z,4.30
2018-12-17T05:02:29.820Z,4.30
2018-12-17T05:05:02.541Z,4.30
2018-12-17T05:07:34.443Z,4.30
2018-12-17T05:10:06.344Z,4.30
2018-12-17T05:12:38.465Z,4.30
2018-12-17T05:15:10.861Z,4.30
2018-12-17T05:17:43.500Z,4.40
2018-12-17T05:20:15.040Z,4.30
2018-12-17T05:22:47.686Z,4.30
2018-12-17T05:25:19.318Z,4.20
2018-12-17T05:27:51.560Z,4.20
2018-12-17T05:30:23.603Z,4.20
2018-12-17T05:32:55.540Z,4.20
2018-12-17T05:35:27.304Z,4.10
2018-12-17T05:37:59.401Z,4.20
2018-12-17T05:40:31.882Z,4.20
2018-12-17T05:43:03.640Z,4.20
2018-12-17T05:45:35.021Z,4.20
2018-12-17T05:48:06.903Z,4.20
2018-12-17T05:50:38.940Z,4.30
2018-12-17T05:53:10.860Z,4.30
2018-12-17T05:55:42.400Z,4.30
2018-12-17T05:58:15.300Z,4.30
2018-12-17T06:00:46.999Z,4.30
2018-12-17T06:03:20.559Z,4.30
2018-12-17T06:05:52.520Z,4.30
2018-12-17T06:08:24.000Z,4.30
2018-12-17T06:10:56.400Z,4.40
2018-12-17T06:13:28.287Z,4.30
2018-12-17T06:16:00.520Z,4.30
2018-12-17T06:18:32.360Z,4.40
2018-12-17T06:21:04.141Z,4.40
2018-12-17T06:23:35.920Z,4.40
2018-12-17T06:26:07.754Z,4.40
2018-12-17T06:28:40.020Z,4.40
2018-12-17T06:31:12.440Z,4.30
2018-12-17T06:33:44.720Z,4.30
2018-12-17T06:36:16.520Z,4.30
2018-12-17T06:38:48.862Z,4.40
2018-12-17T06:41:21.140Z,4.40
2018-12-17T06:43:54.219Z,4.40
2018-12-17T06:46:25.861Z,4.40
2018-12-17T06:48:58.000Z,4.40
2018-12-17T06:51:30.120Z,4.40
2018-12-17T06:54:02.220Z,4.40
2018-12-17T06:56:33.840Z,4.40
2018-12-17T06:59:05.760Z,4.40
2018-12-17T07:01:38.601Z,4.40
2018-12-17T07:04:09.686Z,4.40
2018-12-17T07:06:41.800Z,4.30
2018-12-17T07:09:14.260Z,4.20
2018-12-17T07:11:46.520Z,4.10
2018-12-17T07:14:18.221Z,4.10
2018-12-17T07:16:50.241Z,4.20
2018-12-17T07:19:22.467Z,4.10
2018-12-17T07:21:54.643Z,4.10
2018-12-17T07:24:27.027Z,4.10
2018-12-17T07:26:58.380Z,4.10
2018-12-17T07:29:31.060Z,4.10
2018-12-17T07:32:02.780Z,4.10
2018-12-17T07:34:35.940Z,4.10
2018-12-17T07:37:07.861Z,4.10
2018-12-17T07:39:40.120Z,4.10
2018-12-17T07:42:12.284Z,4.00
2018-12-17T07:44:43.760Z,4.00
2018-12-17T07:47:15.661Z,4.00
2018-12-17T07:49:47.981Z,4.10
2018-12-17T07:52:19.760Z,4.10
2018-12-17T07:54:51.699Z,4.10
2018-12-17T07:57:24.358Z,4.00
2018-12-17T07:59:56.838Z,3.90
2018-12-17T08:02:29.419Z,4.00
2018-12-17T08:05:01.166Z,4.00
2018-12-17T08:07:32.219Z,3.90
2018-12-17T08:10:03.817Z,3.90
2018-12-17T08:12:35.529Z,4.00
2018-12-17T08:15:07.246Z,3.90
2018-12-17T08:17:38.876Z,3.90
2018-12-17T08:20:10.962Z,3.80
2018-12-17T08:22:45.158Z,3.80
2018-12-17T08:25:17.631Z,3.80
2018-12-17T08:27:49.247Z,3.90
2018-12-17T08:30:22.048Z,3.90
2018-12-17T08:32:53.788Z,3.90
2018-12-17T08:35:25.614Z,4.00
2018-12-17T08:37:57.411Z,4.00
2018-12-17T08:40:30.011Z,4.00
2018-12-17T08:43:01.312Z,4.00
2018-12-17T08:45:32.455Z,4.00
2018-12-17T08:48:03.932Z,4.10
2018-12-17T08:50:35.226Z,4.10
2018-12-17T08:53:08.087Z,4.00
2018-12-17T08:55:39.705Z,3.90
2018-12-17T08:58:10.637Z,3.90
2018-12-17T09:00:41.948Z,3.90
2018-12-17T09:03:14.281Z,4.00
2018-12-17T09:05:46.400Z,4.00
2018-12-17T09:08:17.632Z,4.10
2018-12-17T09:10:48.671Z,4.20
2018-12-17T09:13:21.260Z,4.20
2018-12-17T09:15:52.296Z,4.20
2018-12-17T09:18:22.841Z,4.20
2018-12-17T09:20:53.858Z,4.20
2018-12-17T09:23:24.718Z,4.20
2018-12-17T09:25:56.201Z,4.20
2018-12-17T09:28:28.393Z,4.30
2018-12-17T09:30:59.974Z,4.40
2018-12-17T09:33:30.566Z,4.40
2018-12-17T09:36:02.427Z,4.30
2018-12-17T09:38:34.183Z,4.30
2018-12-17T09:41:05.785Z,4.30
2018-12-17T09:43:37.965Z,4.30
2018-12-17T09:46:10.183Z,4.30
2018-12-17T09:48:41.904Z,4.40
2018-12-17T09:51:19.222Z,4.50
2018-12-17T09:53:45.085Z,4.60
2018-12-17T09:56:21.614Z,4.60
2018-12-17T09:58:53.001Z,4.70
2018-12-17T10:01:24.609Z,4.70
2018-12-17T10:03:56.289Z,4.80
2018-12-17T10:06:26.678Z,4.80
2018-12-17T10:08:58.502Z,4.80
2018-12-17T10:11:30.042Z,4.70
2018-12-17T10:14:01.850Z,4.60
2018-12-17T10:16:33.439Z,4.60
2018-12-17T10:19:06.000Z,4.60
2018-12-17T10:21:37.440Z,4.80
2018-12-17T10:24:09.300Z,4.90
2018-12-17T10:26:41.156Z,4.90
2018-12-17T10:29:13.464Z,5.00
2018-12-17T10:31:45.558Z,5.10
2018-12-17T10:34:17.156Z,5.20
2018-12-17T10:36:48.314Z,5.30
2018-12-17T10:39:19.731Z,5.30
2018-12-17T10:41:50.562Z,5.30
2018-12-17T10:44:21.254Z,5.40
2018-12-17T10:46:52.315Z,5.40
2018-12-17T10:49:24.091Z,5.40
2018-12-17T10:51:55.085Z,5.30
2018-12-17T10:54:27.223Z,5.40
2018-12-17T10:56:57.999Z,5.40
2018-12-17T10:59:29.456Z,5.40
2018-12-17T11:02:03.871Z,5.50
2018-12-17T11:04:40.264Z,5.60
2018-12-17T11:07:11.392Z,5.60
2018-12-17T11:09:42.683Z,5.70
2018-12-17T11:12:15.086Z,5.70
2018-12-17T11:14:46.305Z,5.70
2018-12-17T11:17:17.329Z,5.70
2018-12-17T11:19:49.240Z,5.80
2018-12-17T11:22:20.321Z,5.80
2018-12-17T11:24:51.975Z,5.70
2018-12-17T11:27:23.812Z,5.60
2018-12-17T11:29:56.227Z,5.60
2018-12-17T11:32:27.939Z,5.60
2018-12-17T11:34:59.901Z,5.60
2018-12-17T11:37:31.069Z,5.70
2018-12-17T11:40:02.983Z,5.90
2018-12-17T11:42:33.577Z,6.00
2018-12-17T11:45:04.668Z,6.10
2018-12-17T11:47:35.390Z,6.00
2018-12-17T11:50:06.752Z,6.00
2018-12-17T11:52:38.151Z,6.10
2018-12-17T11:55:09.168Z,6.10
2018-12-17T11:58:13.028Z,6.10
2018-12-17T12:00:54.008Z,6.10
2018-12-17T12:03:24.850Z,5.90
2018-12-17T12:05:56.238Z,5.80
2018-12-17T12:08:27.069Z,5.80
2018-12-17T12:10:58.621Z,5.70
2018-12-17T12:13:29.493Z,5.60
2018-12-17T12:16:00.531Z,5.60
2018-12-17T12:18:32.397Z,5.50
2018-12-17T12:21:04.025Z,5.50
2018-12-17T12:23:35.095Z,5.40
2018-12-17T12:26:08.520Z,5.30
2018-12-17T12:28:39.029Z,5.40
2018-12-17T12:31:10.271Z,5.40
2018-12-17T12:33:41.297Z,5.50
2018-12-17T12:36:13.409Z,5.60
2018-12-17T12:38:45.108Z,5.60
2018-12-17T12:41:17.689Z,5.60
2018-12-17T12:43:49.488Z,5.50
2018-12-17T12:46:21.971Z,5.50
2018-12-17T12:48:54.239Z,5.50
2018-12-17T12:51:32.449Z,5.60
2018-12-17T12:53:59.466Z,5.70
2018-12-17T12:56:32.432Z,5.90
2018-12-17T12:59:04.415Z,6.20
2018-12-17T13:01:36.344Z,6.40
2018-12-17T13:04:09.111Z,6.30
2018-12-17T13:06:41.081Z,6.30
2018-12-17T13:09:12.820Z,6.20
2018-12-17T13:11:45.278Z,6.20
2018-12-17T13:14:18.242Z,6.10
2018-12-17T13:16:50.101Z,6.20
2018-12-17T13:19:22.221Z,6.20
2018-12-17T13:21:54.621Z,6.20
2018-12-17T13:24:26.321Z,6.20
2018-12-17T13:26:58.802Z,6.30
2018-12-17T13:29:30.222Z,6.30
2018-12-17T13:32:02.100Z,6.30
2018-12-17T13:34:33.321Z,6.30
2018-12-17T13:37:05.541Z,6.40
2018-12-17T13:39:37.721Z,6.50
2018-12-17T13:42:11.042Z,6.40
2018-12-17T13:44:42.602Z,6.30
2018-12-17T13:47:14.882Z,6.30
2018-12-17T13:49:47.201Z,6.30
2018-12-17T13:52:53.482Z,6.30
2018-12-17T13:55:25.561Z,6.20
2018-12-17T13:57:57.241Z,6.00
2018-12-17T14:00:28.761Z,5.90
2018-12-17T14:03:00.981Z,5.90
2018-12-17T14:05:32.422Z,5.80
2018-12-17T14:08:04.341Z,5.80
2018-12-17T14:10:40.423Z,5.80
2018-12-17T14:13:12.563Z,5.70
2018-12-17T14:15:48.828Z,5.70
2018-12-17T14:18:25.267Z,5.70
2018-12-17T14:21:01.507Z,5.80
2018-12-17T14:23:33.107Z,5.80
2018-12-17T14:26:05.187Z,5.90
2018-12-17T14:28:37.348Z,5.90
2018-12-17T14:31:08.609Z,6.10
2018-12-17T14:33:41.249Z,6.10
2018-12-17T14:36:14.607Z,6.20
2018-12-17T14:38:46.688Z,6.20
2018-12-17T14:41:17.967Z,6.20
2018-12-17T14:43:49.185Z,6.20
2018-12-17T14:46:22.066Z,6.30
2018-12-17T14:48:53.487Z,6.30
2018-12-17T14:51:26.107Z,6.30
2018-12-17T14:53:57.247Z,6.30
2018-12-17T14:56:28.748Z,6.30
2018-12-17T14:59:01.241Z,6.30
2018-12-17T15:01:35.730Z,6.40
2018-12-17T15:04:07.022Z,6.40
2018-12-17T15:06:38.496Z,6.50
2018-12-17T15:09:10.273Z,6.50
2018-12-17T15:11:42.634Z,6.60
2018-12-17T15:14:14.393Z,6.50
2018-12-17T15:16:46.234Z,6.50
2018-12-17T15:19:17.892Z,6.40
2018-12-17T15:21:50.199Z,6.50
2018-12-17T15:24:21.915Z,6.50
2018-12-17T15:26:54.054Z,6.40
2018-12-17T15:29:25.799Z,6.40
2018-12-17T15:31:57.900Z,6.40
2018-12-17T15:34:29.084Z,6.40
2018-12-17T15:37:00.961Z,6.40
2018-12-17T15:39:32.601Z,6.40
2018-12-17T15:42:05.899Z,6.40
2018-12-17T15:44:37.379Z,6.40
2018-12-17T15:47:10.080Z,6.40
2018-12-17T15:49:41.924Z,6.40
2018-12-17T15:52:12.780Z,6.40
2018-12-17T15:54:43.688Z,6.30
2018-12-17T15:57:14.487Z,6.30
2018-12-17T15:59:46.499Z,6.30
2018-12-17T16:02:17.442Z,7.30
2018-12-17T16:04:48.532Z,6.30
2018-12-17T16:07:19.851Z,6.30
2018-12-17T16:09:53.638Z,6.40
2018-12-17T16:12:24.728Z,6.40
2018-12-17T16:14:56.085Z,6.40
2018-12-17T16:17:27.867Z,6.40
2018-12-17T16:19:58.473Z,6.30
2018-12-17T16:22:30.181Z,6.30
2018-12-17T16:25:00.725Z,6.30
2018-12-17T16:27:32.641Z,6.30
2018-12-17T16:30:04.240Z,6.40
2018-12-17T16:32:36.450Z,6.40
2018-12-17T16:35:07.809Z,6.40
2018-12-17T16:37:39.183Z,6.40
2018-12-17T16:40:11.338Z,6.40
2018-12-17T16:42:45.163Z,6.40
2018-12-17T16:45:18.419Z,6.40
2018-12-17T16:47:50.216Z,6.40
2018-12-17T16:50:22.055Z,6.50
2018-12-17T16:52:54.235Z,6.50
2018-12-17T16:55:25.655Z,6.50
2018-12-17T16:57:57.115Z,6.50
2018-12-17T17:00:28.635Z,6.40
2018-12-17T17:03:01.357Z,6.30
2018-12-17T17:05:32.554Z,6.30
2018-12-17T17:08:04.275Z,6.30
2018-12-17T17:10:36.757Z,6.30
2018-12-17T17:13:09.063Z,6.30
2018-12-17T17:15:40.794Z,6.30
2018-12-17T17:18:12.575Z,6.30
2018-12-17T17:20:44.514Z,6.30
2018-12-17T17:23:16.717Z,6.20
2018-12-17T17:25:48.156Z,6.20
2018-12-17T17:28:20.056Z,6.20
2018-12-17T17:30:52.456Z,6.20
2018-12-17T17:33:24.260Z,6.20
2018-12-17T17:35:57.498Z,6.20
2018-12-17T17:38:28.956Z,6.30
2018-12-17T17:41:00.636Z,6.30
2018-12-17T17:43:32.374Z,6.30
2018-12-17T17:46:04.517Z,6.30
2018-12-17T17:48:36.374Z,6.30
2018-12-17T17:51:08.675Z,6.30
2018-12-17T17:53:40.483Z,6.30
2018-12-17T17:56:12.655Z,6.30
2018-12-17T17:58:43.838Z,6.40
2018-12-17T18:01:14.915Z,6.40
2018-12-17T18:03:46.662Z,6.50
2018-12-17T18:06:19.235Z,6.50
2018-12-17T18:08:51.603Z,6.50
2018-12-17T18:11:23.396Z,6.50
2018-12-17T18:13:55.186Z,6.60
2018-12-17T18:16:27.466Z,6.60
2018-12-17T18:19:00.348Z,6.70
2018-12-17T18:21:32.588Z,6.70
2018-12-17T18:24:04.045Z,6.60
2018-12-17T18:26:36.546Z,6.60
2018-12-17T18:29:08.206Z,6.60
2018-12-17T18:31:40.151Z,6.60
2018-12-17T18:34:11.466Z,6.60
2018-12-17T18:36:44.567Z,6.60
2018-12-17T18:39:16.444Z,6.50
2018-12-17T18:41:48.646Z,6.60
2018-12-17T18:44:20.784Z,6.60
2018-12-17T18:46:52.926Z,6.50
2018-12-17T18:49:24.466Z,6.50
2018-12-17T18:51:56.545Z,6.50
2018-12-17T18:54:28.129Z,6.50
2018-12-17T18:57:00.785Z,6.50
2018-12-17T18:59:33.046Z,6.40
2018-12-17T19:02:05.533Z,6.40
2018-12-17T19:04:37.765Z,6.40
2018-12-17T19:07:09.285Z,6.40
2018-12-17T19:09:41.646Z,6.40
2018-12-17T19:12:13.226Z,6.30
2018-12-17T19:14:45.005Z,6.20
2018-12-17T19:17:17.725Z,6.10
2018-12-17T19:19:50.044Z,6.00
2018-12-17T19:22:21.966Z,6.00
2018-12-17T19:24:53.985Z,5.90
2018-12-17T19:27:26.606Z,5.80
2018-12-17T19:29:59.345Z,5.70
2018-12-17T19:32:31.005Z,5.70
2018-12-17T19:35:03.525Z,5.70
2018-12-17T19:37:36.425Z,5.70
2018-12-17T19:40:09.265Z,5.80
2018-12-17T19:42:41.605Z,5.80
2018-12-17T19:45:13.246Z,5.80
2018-12-17T19:47:45.465Z,5.80
2018-12-17T19:50:17.426Z,5.80
2018-12-17T19:52:49.762Z,5.80
2018-12-17T19:55:22.085Z,5.90
2018-12-17T19:57:55.140Z,6.00
2018-12-17T20:00:27.566Z,6.00
2018-12-17T20:02:59.987Z,6.10
2018-12-17T20:05:32.784Z,6.10
2018-12-17T20:08:05.533Z,6.10
2018-12-17T20:10:37.086Z,6.00
2018-12-17T20:13:10.286Z,6.10
2018-12-17T20:15:41.986Z,6.10
2018-12-17T20:18:14.245Z,6.10
2018-12-17T20:20:46.086Z,6.20
2018-12-17T20:23:18.688Z,6.20
2018-12-17T20:25:50.625Z,6.20
2018-12-17T20:28:23.886Z,6.20
2018-12-17T20:30:55.706Z,6.20
2018-12-17T20:33:27.367Z,6.20
2018-12-17T20:35:59.047Z,6.10
2018-12-17T20:38:31.726Z,6.10
2018-12-17T20:41:03.152Z,6.20
2018-12-17T20:43:36.106Z,6.20
2018-12-17T20:46:07.145Z,6.30
2018-12-17T20:48:38.965Z,6.30
2018-12-17T20:51:10.165Z,6.30
2018-12-17T20:53:42.828Z,6.40
2018-12-17T20:56:14.607Z,6.30
2018-12-17T20:58:47.185Z,6.30
2018-12-17T21:01:19.305Z,6.20
2018-12-17T21:03:51.586Z,6.20
2018-12-17T21:06:23.948Z,6.20
2018-12-17T21:08:55.666Z,6.20
2018-12-17T21:11:27.546Z,6.20
2018-12-17T21:13:59.225Z,6.10
2018-12-17T21:16:30.905Z,6.00
2018-12-17T21:19:03.105Z,6.00
2018-12-17T21:21:35.006Z,6.00
2018-12-17T21:24:06.767Z,6.00
2018-12-17T21:26:38.205Z,5.90
2018-12-17T21:29:10.246Z,5.90
2018-12-17T21:31:43.705Z,5.90
2018-12-17T21:34:16.036Z,5.80
2018-12-17T21:36:48.346Z,5.80
2018-12-17T21:39:20.405Z,5.70
2018-12-17T21:41:52.186Z,5.70
2018-12-17T21:44:23.867Z,5.80
2018-12-17T21:46:55.665Z,5.80
2018-12-17T21:49:27.285Z,5.90
2018-12-17T21:51:59.325Z,6.00
2018-12-17T21:54:31.653Z,6.00
2018-12-17T21:57:05.386Z,6.00
2018-12-17T21:59:36.845Z,6.00
2018-12-17T22:02:09.364Z,6.00
2018-12-17T22:04:40.825Z,6.00
2018-12-17T22:07:12.785Z,6.00
2018-12-17T22:09:44.184Z,6.10
2018-12-17T22:12:15.565Z,6.10
2018-12-17T22:14:47.550Z,6.10
2018-12-17T22:17:19.964Z,6.10
2018-12-17T22:19:51.544Z,6.10
2018-12-17T22:22:23.628Z,6.00
2018-12-17T22:24:55.486Z,6.00
2018-12-17T22:27:27.484Z,6.00
2018-12-17T22:29:59.424Z,6.00
2018-12-17T22:32:31.444Z,6.00
2018-12-17T22:35:04.044Z,6.00
2018-12-17T22:37:35.885Z,5.90
2018-12-17T22:40:08.966Z,5.90
2018-12-17T22:42:40.245Z,6.00
2018-12-17T22:45:11.986Z,6.00
2018-12-17T22:47:44.645Z,6.00
2018-12-17T22:50:16.624Z,6.00
2018-12-17T22:52:48.764Z,5.90
2018-12-17T22:55:20.307Z,5.80
2018-12-17T22:57:52.864Z,5.70
2018-12-17T23:00:24.903Z,5.70
2018-12-17T23:02:57.142Z,5.70
2018-12-17T23:05:28.767Z,5.70
2018-12-17T23:08:01.244Z,5.70
2018-12-17T23:10:45.523Z,5.70
2018-12-17T23:13:28.084Z,5.70
2018-12-17T23:16:10.004Z,5.70
2018-12-17T23:18:39.623Z,5.70
2018-12-17T23:21:11.404Z,5.70
2018-12-17T23:23:43.364Z,5.80
2018-12-17T23:26:15.403Z,5.80
2018-12-17T23:28:47.383Z,5.90
2018-12-17T23:31:19.203Z,6.00
2018-12-17T23:33:50.983Z,6.10
2018-12-17T23:36:23.564Z,6.10
2018-12-17T23:38:55.484Z,6.00
2018-12-17T23:41:27.864Z,6.00
2018-12-17T23:43:59.823Z,6.00
2018-12-17T23:46:31.783Z,6.10
2018-12-17T23:49:03.924Z,6.00
2018-12-17T23:51:35.503Z,6.00
2018-12-17T23:54:07.243Z,6.00
2018-12-17T23:56:39.203Z,6.00
2018-12-17T23:59:11.923Z,6.00
